Terminal Aerodrome Forecast
Issued by NWS

Home | Current Version | Previous Version | Text Only | Print | Product List | Glossary On
Versions: 1 2 3 4 5 6 7 8 9 10 11 12 13 14 15 16
000
FTAK31 PAJN 202300
TAFAPG
TAF
PAPG 202323Z 2100/2124 12005KT P6SM VCSH SCT020 BKN040
      TEMPO 2100/2103 P6SM -SHRA BKN010 OVC015
     FM210300 VRB04KT P6SM -RA SCT020 OVC040
     FM210700 11006KT 6SM -RA BR SCT020 OVC035
     FM211300 11011KT 6SM -RA BR SCT020 OVC030
     FM212200 11006KT P6SM -SHRA BKN030 OVC040
      AMD LTD TO CLD VIS AND WIND 2106/2115=

USA.gov is the U.S. government's official web portal to all federal, state and local government web resources and services.